Terminal Aerodrome Forecast
Issued by NWS

Home | Current Version | Previous Version | Text Only | Print | Product List | Glossary Off
Versions: 1 2 3 4 5 6 7 8 9 10 11 12 13 14 15 16 17 18 19 20 21 22 23 24 25 26 27 28 29 30 31 32 33

000
FTUS43 KLOT 252000 AAA
TAFORD
TAF AMD
KORD 252000Z 2520/2624 07014G21KT 6SM -SHRA BR SCT015 OVC035
      TEMPO 2520/2521 5SM -RA BR OVC022
     FM252200 05012G18KT P6SM FEW025 OVC045
     FM260100 04011KT P6SM BKN050
     FM260500 03009KT P6SM SKC
     FM261400 02011KT P6SM SKC
     FM261700 04013G19KT P6SM SKC=

USA.gov is the U.S. government's official web portal to all federal, state and local government web resources and services.